sensor_id;sensor_type;location;lat;lon;timestamp;pressure;altitude;pressure_sealevel;temperature;humidity
35023;BME280;21214;44.912;8.204;2023-05-08T00:01:34;99733.84;;;17.14;100.00
35023;BME280;21214;44.912;8.204;2023-05-08T00:03:59;99734.91;;;17.05;100.00
35023;BME280;21214;44.912;8.204;2023-05-08T00:06:25;99731.94;;;17.00;100.00
35023;BME280;21214;44.912;8.204;2023-05-08T00:08:52;99730.28;;;16.99;100.00
35023;BME280;21214;44.912;8.204;2023-05-08T00:11:17;99733.31;;;16.96;100.00
35023;BME280;21214;44.912;8.204;2023-05-08T00:13:43;99733.25;;;17.04;100.00
35023;BME280;21214;44.912;8.204;2023-05-08T00:16:08;99729.13;;;17.01;100.00
35023;BME280;21214;44.912;8.204;2023-05-08T00:18:35;99731.94;;;17.00;100.00
35023;BME280;21214;44.912;8.204;2023-05-08T00:21:02;99731.50;;;16.96;100.00
35023;BME280;21214;44.912;8.204;2023-05-08T00:23:28;99728.75;;;16.82;100.00
35023;BME280;21214;44.912;8.204;2023-05-08T00:25:53;99731.38;;;16.90;100.00
35023;BME280;21214;44.912;8.204;2023-05-08T00:28:19;99734.34;;;16.95;100.00
35023;BME280;21214;44.912;8.204;2023-05-08T00:30:45;99730.66;;;16.96;100.00
35023;BME280;21214;44.912;8.204;2023-05-08T00:33:10;99720.00;;;16.96;100.00
35023;BME280;21214;44.912;8.204;2023-05-08T00:35:35;99730.44;;;16.83;100.00
35023;BME280;21214;44.912;8.204;2023-05-08T00:38:01;99733.81;;;16.76;100.00
35023;BME280;21214;44.912;8.204;2023-05-08T00:40:26;99724.97;;;16.76;100.00
35023;BME280;21214;44.912;8.204;2023-05-08T00:42:52;99729.91;;;16.56;100.00
35023;BME280;21214;44.912;8.204;2023-05-08T00:45:18;99727.31;;;16.48;100.00
35023;BME280;21214;44.912;8.204;2023-05-08T00:47:43;99732.00;;;16.38;100.00
35023;BME280;21214;44.912;8.204;2023-05-08T00:50:09;99726.09;;;16.28;100.00
35023;BME280;21214;44.912;8.204;2023-05-08T00:52:34;99733.81;;;16.15;100.00
35023;BME280;21214;44.912;8.204;2023-05-08T00:55:01;99735.13;;;16.19;100.00
35023;BME280;21214;44.912;8.204;2023-05-08T00:57:28;99737.66;;;16.12;100.00
35023;BME280;21214;44.912;8.204;2023-05-08T00:59:55;99739.53;;;16.04;100.00
35023;BME280;21214;44.912;8.204;2023-05-08T01:02:21;99744.28;;;16.16;100.00
35023;BME280;21214;44.912;8.204;2023-05-08T01:04:47;99741.09;;;16.21;100.00
35023;BME280;21214;44.912;8.204;2023-05-08T01:07:12;99745.72;;;16.27;100.00
35023;BME280;21214;44.912;8.204;2023-05-08T01:09:37;99745.72;;;16.27;100.00
35023;BME280;21214;44.912;8.204;2023-05-08T01:14:40;99747.06;;;16.31;100.00
35023;BME280;21214;44.912;8.204;2023-05-08T01:17:10;99743.03;;;16.35;100.00
35023;BME280;21214;44.912;8.204;2023-05-08T01:19:42;99745.03;;;16.33;100.00
35023;BME280;21214;44.912;8.204;2023-05-08T01:25:07;99746.41;;;16.29;100.00
35023;BME280;21214;44.912;8.204;2023-05-08T01:27:34;99748.44;;;16.19;100.00
35023;BME280;21214;44.912;8.204;2023-05-08T01:30:07;99744.78;;;16.20;100.00
35023;BME280;21214;44.912;8.204;2023-05-08T01:32:39;99747.13;;;16.15;100.00
35023;BME280;21214;44.912;8.204;2023-05-08T01:37:45;99754.09;;;16.16;100.00
35023;BME280;21214;44.912;8.204;2023-05-08T01:40:23;99753.09;;;16.25;100.00
35023;BME280;21214;44.912;8.204;2023-05-08T01:42:50;99750.72;;;16.30;100.00
35023;BME280;21214;44.912;8.204;2023-05-08T01:45:21;99750.03;;;16.36;100.00
35023;BME280;21214;44.912;8.204;2023-05-08T01:47:50;99752.63;;;16.44;100.00
35023;BME280;21214;44.912;8.204;2023-05-08T01:50:21;99753.44;;;16.45;100.00
35023;BME280;21214;44.912;8.204;2023-05-08T01:52:56;99748.38;;;16.35;100.00
35023;BME280;21214;44.912;8.204;2023-05-08T01:55:26;99741.38;;;16.34;100.00
35023;BME280;21214;44.912;8.204;2023-05-08T01:57:55;99739.78;;;16.17;100.00
35023;BME280;21214;44.912;8.204;2023-05-08T02:00:21;99738.44;;;16.21;100.00
35023;BME280;21214;44.912;8.204;2023-05-08T02:02:50;99741.78;;;16.15;100.00
35023;BME280;21214;44.912;8.204;2023-05-08T02:05:17;99746.09;;;16.24;100.00
35023;BME280;21214;44.912;8.204;2023-05-08T02:07:45;99745.41;;;16.30;100.00
35023;BME280;21214;44.912;8.204;2023-05-08T02:10:13;99747.75;;;16.25;100.00
35023;BME280;21214;44.912;8.204;2023-05-08T02:12:39;99749.38;;;16.26;100.00
35023;BME280;21214;44.912;8.204;2023-05-08T02:15:05;99745.41;;;16.30;100.00
35023;BME280;21214;44.912;8.204;2023-05-08T02:17:32;99739.53;;;16.34;100.00
35023;BME280;21214;44.912;8.204;2023-05-08T02:19:57;99745.72;;;16.27;100.00
35023;BME280;21214;44.912;8.204;2023-05-08T02:22:25;99736.47;;;16.15;100.00
35023;BME280;21214;44.912;8.204;2023-05-08T02:24:50;99744.28;;;16.16;100.00
35023;BME280;21214;44.912;8.204;2023-05-08T02:27:22;99743.47;;;16.16;100.00
35023;BME280;21214;44.912;8.204;2023-05-08T02:29:49;99736.47;;;16.15;100.00
35023;BME280;21214;44.912;8.204;2023-05-08T02:32:16;99736.84;;;16.12;100.00
35023;BME280;21214;44.912;8.204;2023-05-08T02:34:42;99737.84;;;16.11;100.00
35023;BME280;21214;44.912;8.204;2023-05-08T02:37:07;99745.13;;;16.17;100.00
35023;BME280;21214;44.912;8.204;2023-05-08T02:39:34;99737.44;;;16.22;100.00
35023;BME280;21214;44.912;8.204;2023-05-08T02:42:01;99744.06;;;16.26;100.00
35023;BME280;21214;44.912;8.204;2023-05-08T02:44:28;99748.69;;;16.32;100.00
35023;BME280;21214;44.912;8.204;2023-05-08T02:46:57;99751.03;;;16.35;100.00
35023;BME280;21214;44.912;8.204;2023-05-08T02:49:36;99747.28;;;16.44;100.00
35023;BME280;21214;44.912;8.204;2023-05-08T02:52:09;99752.81;;;16.43;100.00
35023;BME280;21214;44.912;8.204;2023-05-08T02:54:38;99753.69;;;16.35;100.00
35023;BME280;21214;44.912;8.204;2023-05-08T02:57:09;99756.75;;;16.24;100.00
35023;BME280;21214;44.912;8.204;2023-05-08T02:59:38;99757.72;;;16.31;100.00
35023;BME280;21214;44.912;8.204;2023-05-08T03:04:36;99750.50;;;16.39;100.00
35023;BME280;21214;44.912;8.204;2023-05-08T03:07:04;99749.66;;;16.39;100.00
35023;BME280;21214;44.912;8.204;2023-05-08T03:09:43;99750.63;;;16.46;100.00
35023;BME280;21214;44.912;8.204;2023-05-08T03:12:11;99762.56;;;16.50;100.00
35023;BME280;21214;44.912;8.204;2023-05-08T03:14:40;99760.94;;;16.49;100.00
35023;BME280;21214;44.912;8.204;2023-05-08T03:17:07;99758.28;;;16.49;100.00
35023;BME280;21214;44.912;8.204;2023-05-08T03:19:35;99767.91;;;16.50;100.00
35023;BME280;21214;44.912;8.204;2023-05-08T03:22:04;99760.22;;;16.55;100.00
35023;BME280;21214;44.912;8.204;2023-05-08T03:24:32;99768.56;;;16.60;100.00
35023;BME280;21214;44.912;8.204;2023-05-08T03:26:59;99771.53;;;16.65;100.00
35023;BME280;21214;44.912;8.204;2023-05-08T03:29:24;99777.03;;;16.64;100.00
35023;BME280;21214;44.912;8.204;2023-05-08T03:31:51;99780.50;;;16.64;100.00
35023;BME280;21214;44.912;8.204;2023-05-08T03:34:18;99778.56;;;16.50;100.00
35023;BME280;21214;44.912;8.204;2023-05-08T03:36:43;99775.03;;;16.58;100.00
35023;BME280;21214;44.912;8.204;2023-05-08T03:39:09;99779.69;;;16.56;100.00
35023;BME280;21214;44.912;8.204;2023-05-08T03:41:35;99784.56;;;16.52;100.00
35023;BME280;21214;44.912;8.204;2023-05-08T03:44:01;99785.56;;;16.51;100.00
35023;BME280;21214;44.912;8.204;2023-05-08T03:46:29;99785.56;;;16.51;100.00
35023;BME280;21214;44.912;8.204;2023-05-08T03:48:55;99785.91;;;16.48;100.00
35023;BME280;21214;44.912;8.204;2023-05-08T03:51:21;99789.28;;;16.42;100.00
35023;BME280;21214;44.912;8.204;2023-05-08T03:53:47;99788.69;;;16.24;100.00
35023;BME280;21214;44.912;8.204;2023-05-08T03:56:13;99781.00;;;16.29;100.00
35023;BME280;21214;44.912;8.204;2023-05-08T03:58:55;99785.81;;;16.33;100.00
35023;BME280;21214;44.912;8.204;2023-05-08T04:01:27;99792.00;;;16.26;100.00
35023;BME280;21214;44.912;8.204;2023-05-08T04:04:20;99782.69;;;16.30;100.00
35023;BME280;21214;44.912;8.204;2023-05-08T04:06:56;99793.66;;;16.27;100.00
35023;BME280;21214;44.912;8.204;2023-05-08T04:09:32;99797.06;;;16.13;100.00
35023;BME280;21214;44.912;8.204;2023-05-08T04:14:25;99796.09;;;16.06;100.00
35023;BME280;21214;44.912;8.204;2023-05-08T04:16:52;99793.06;;;16.09;100.00
35023;BME280;21214;44.912;8.204;2023-05-08T04:19:25;99800.03;;;16.18;100.00
35023;BME280;21214;44.912;8.204;2023-05-08T04:21:52;99798.16;;;16.26;100.00
35023;BME280;21214;44.912;8.204;2023-05-08T04:24:20;99796.53;;;16.25;100.00
35023;BME280;21214;44.912;8.204;2023-05-08T04:26:46;99796.38;;;16.19;100.00
35023;BME280;21214;44.912;8.204;2023-05-08T04:29:13;99802.31;;;16.29;100.00
35023;BME280;21214;44.912;8.204;2023-05-08T04:31:39;99805.97;;;16.28;100.00
35023;BME280;21214;44.912;8.204;2023-05-08T04:34:06;99805.84;;;16.21;100.00
35023;BME280;21214;44.912;8.204;2023-05-08T04:36:33;99801.84;;;16.25;100.00
35023;BME280;21214;44.912;8.204;2023-05-08T04:39:00;99807.84;;;16.19;100.00
35023;BME280;21214;44.912;8.204;2023-05-08T04:41:26;99818.28;;;16.29;100.00
35023;BME280;21214;44.912;8.204;2023-05-08T04:43:52;99817.28;;;16.30;100.00
35023;BME280;21214;44.912;8.204;2023-05-08T04:46:18;99812.59;;;16.32;100.00
35023;BME280;21214;44.912;8.204;2023-05-08T04:48:44;99810.28;;;16.37;100.00
35023;BME280;21214;44.912;8.204;2023-05-08T04:51:09;99813.25;;;16.42;100.00
35023;BME280;21214;44.912;8.204;2023-05-08T04:53:34;99817.91;;;16.40;100.00
35023;BME280;21214;44.912;8.204;2023-05-08T04:56:00;99820.75;;;16.38;100.00
35023;BME280;21214;44.912;8.204;2023-05-08T04:58:25;99819.75;;;16.39;100.00
35023;BME280;21214;44.912;8.204;2023-05-08T05:00:53;99817.59;;;16.35;100.00
35023;BME280;21214;44.912;8.204;2023-05-08T05:03:19;99813.59;;;16.39;100.00
35023;BME280;21214;44.912;8.204;2023-05-08T05:05:44;99820.88;;;16.45;100.00
35023;BME280;21214;44.912;8.204;2023-05-08T05:08:10;99817.50;;;16.51;100.00
35023;BME280;21214;44.912;8.204;2023-05-08T05:10:37;99823.47;;;16.61;100.00
35023;BME280;21214;44.912;8.204;2023-05-08T05:13:02;99828.78;;;16.69;100.00
35023;BME280;21214;44.912;8.204;2023-05-08T05:15:27;99826.78;;;16.71;100.00
35023;BME280;21214;44.912;8.204;2023-05-08T05:17:53;99826.25;;;16.76;100.00
35023;BME280;21214;44.912;8.204;2023-05-08T05:20:18;99834.06;;;16.77;100.00
35023;BME280;21214;44.912;8.204;2023-05-08T05:22:43;99832.00;;;16.88;100.00
35023;BME280;21214;44.912;8.204;2023-05-08T05:25:09;99834.78;;;16.94;100.00
35023;BME280;21214;44.912;8.204;2023-05-08T05:27:34;99840.72;;;17.04;100.00
35023;BME280;21214;44.912;8.204;2023-05-08T05:30:04;99844.50;;;17.10;100.00
35023;BME280;21214;44.912;8.204;2023-05-08T05:32:31;99841.66;;;17.11;100.00
35023;BME280;21214;44.912;8.204;2023-05-08T05:34:56;99849.84;;;17.10;100.00
35023;BME280;21214;44.912;8.204;2023-05-08T05:37:22;99852.22;;;17.05;100.00
35023;BME280;21214;44.912;8.204;2023-05-08T05:39:48;99847.59;;;16.99;100.00
35023;BME280;21214;44.912;8.204;2023-05-08T05:42:13;99844.25;;;16.97;100.00
35023;BME280;21214;44.912;8.204;2023-05-08T05:44:42;99850.53;;;17.04;100.00
35023;BME280;21214;44.912;8.204;2023-05-08T05:47:07;99847.47;;;17.15;100.00
35023;BME280;21214;44.912;8.204;2023-05-08T05:57:40;99856.59;;;17.43;100.00
35023;BME280;21214;44.912;8.204;2023-05-08T06:00:07;99859.19;;;17.51;100.00
35023;BME280;21214;44.912;8.204;2023-05-08T06:02:39;99856.50;;;17.37;100.00
35023;BME280;21214;44.912;8.204;2023-05-08T06:05:06;99859.19;;;17.51;100.00
35023;BME280;21214;44.912;8.204;2023-05-08T06:07:32;99856.94;;;17.63;100.00
35023;BME280;21214;44.912;8.204;2023-05-08T06:09:57;99857.78;;;17.64;100.00
35023;BME280;21214;44.912;8.204;2023-05-08T06:12:23;99860.38;;;17.72;100.00
35023;BME280;21214;44.912;8.204;2023-05-08T06:14:50;99859.38;;;17.87;100.00
35023;BME280;21214;44.912;8.204;2023-05-08T06:17:16;99857.09;;;17.99;100.00
35023;BME280;21214;44.912;8.204;2023-05-08T06:19:41;99868.25;;;18.17;100.00
35023;BME280;21214;44.912;8.204;2023-05-08T06:22:07;99860.78;;;18.27;100.00
35023;BME280;21214;44.912;8.204;2023-05-08T06:24:32;99863.72;;;18.32;100.00
35023;BME280;21214;44.912;8.204;2023-05-08T06:26:58;99863.91;;;18.46;100.00
35023;BME280;21214;44.912;8.204;2023-05-08T06:29:23;99867.50;;;18.53;100.00
35023;BME280;21214;44.912;8.204;2023-05-08T06:31:48;99877.66;;;18.57;100.00
35023;BME280;21214;44.912;8.204;2023-05-08T06:34:14;99878.41;;;18.66;100.00
35023;BME280;21214;44.912;8.204;2023-05-08T06:36:39;99875.06;;;18.64;100.00
35023;BME280;21214;44.912;8.204;2023-05-08T06:39:05;99881.69;;;18.68;100.00
35023;BME280;21214;44.912;8.204;2023-05-08T06:41:31;99887.78;;;18.62;100.00
35023;BME280;21214;44.912;8.204;2023-05-08T06:43:56;99888.69;;;18.54;100.00
35023;BME280;21214;44.912;8.204;2023-05-08T06:46:22;99892.72;;;18.50;100.00
35023;BME280;21214;44.912;8.204;2023-05-08T06:48:47;99893.13;;;18.47;100.00
35023;BME280;21214;44.912;8.204;2023-05-08T06:51:13;99885.75;;;18.49;100.00
35023;BME280;21214;44.912;8.204;2023-05-08T06:53:38;99888.53;;;18.56;100.00
35023;BME280;21214;44.912;8.204;2023-05-08T06:56:03;99892.69;;;18.73;100.00
35023;BME280;21214;44.912;8.204;2023-05-08T06:58:30;99889.44;;;18.77;100.00
35023;BME280;21214;44.912;8.204;2023-05-08T07:00:58;99895.47;;;18.86;100.00
35023;BME280;21214;44.912;8.204;2023-05-08T07:03:24;99894.13;;;18.90;100.00
35023;BME280;21214;44.912;8.204;2023-05-08T07:05:50;99892.72;;;18.79;100.00
35023;BME280;21214;44.912;8.204;2023-05-08T07:08:15;99900.13;;;18.77;100.00
35023;BME280;21214;44.912;8.204;2023-05-08T07:10:40;99906.56;;;18.83;100.00
35023;BME280;21214;44.912;8.204;2023-05-08T07:13:07;99896.88;;;18.82;100.00
35023;BME280;21214;44.912;8.204;2023-05-08T07:15:32;99903.06;;;18.83;100.00
35023;BME280;21214;44.912;8.204;2023-05-08T07:17:58;99900.56;;;18.81;100.00
35023;BME280;21214;44.912;8.204;2023-05-08T07:20:23;99902.88;;;18.84;100.00
35023;BME280;21214;44.912;8.204;2023-05-08T07:22:48;99903.50;;;18.86;100.00
35023;BME280;21214;44.912;8.204;2023-05-08T07:25:14;99901.47;;;18.88;100.00
35023;BME280;21214;44.912;8.204;2023-05-08T07:27:40;99909.94;;;18.92;100.00
35023;BME280;21214;44.912;8.204;2023-05-08T07:30:06;99905.25;;;18.94;100.00
35023;BME280;21214;44.912;8.204;2023-05-08T07:32:32;99905.69;;;18.97;100.00
35023;BME280;21214;44.912;8.204;2023-05-08T07:34:57;99909.03;;;18.99;100.00
35023;BME280;21214;44.912;8.204;2023-05-08T07:37:22;99909.53;;;19.09;100.00
35023;BME280;21214;44.912;8.204;2023-05-08T07:39:48;99898.56;;;19.19;100.00
35023;BME280;21214;44.912;8.204;2023-05-08T07:42:13;99896.19;;;19.31;100.00
35023;BME280;21214;44.912;8.204;2023-05-08T07:44:39;99903.06;;;19.40;100.00
35023;BME280;21214;44.912;8.204;2023-05-08T07:47:04;99902.50;;;19.44;100.00
35023;BME280;21214;44.912;8.204;2023-05-08T07:49:30;99895.97;;;19.47;100.00
35023;BME280;21214;44.912;8.204;2023-05-08T07:51:58;99903.88;;;19.55;100.00
35023;BME280;21214;44.912;8.204;2023-05-08T07:54:25;99901.28;;;19.68;100.00
35023;BME280;21214;44.912;8.204;2023-05-08T07:56:50;99896.84;;;19.75;100.00
35023;BME280;21214;44.912;8.204;2023-05-08T07:59:16;99898.31;;;19.78;100.00
35023;BME280;21214;44.912;8.204;2023-05-08T08:01:41;99886.88;;;19.90;100.00
35023;BME280;21214;44.912;8.204;2023-05-08T08:04:11;99893.13;;;20.04;100.00
35023;BME280;21214;44.912;8.204;2023-05-08T08:06:36;99889.06;;;20.15;100.00
35023;BME280;21214;44.912;8.204;2023-05-08T08:09:02;99891.22;;;20.26;100.00
35023;BME280;21214;44.912;8.204;2023-05-08T08:11:27;99888.41;;;20.34;100.00
35023;BME280;21214;44.912;8.204;2023-05-08T08:13:53;99888.06;;;20.43;100.00
35023;BME280;21214;44.912;8.204;2023-05-08T08:16:18;99887.69;;;20.53;100.00
35023;BME280;21214;44.912;8.204;2023-05-08T08:18:43;99884.84;;;20.61;100.00
35023;BME280;21214;44.912;8.204;2023-05-08T08:21:10;99889.44;;;20.74;100.00
35023;BME280;21214;44.912;8.204;2023-05-08T08:23:37;99900.59;;;20.77;100.00
35023;BME280;21214;44.912;8.204;2023-05-08T08:26:02;99893.16;;;20.79;100.00
35023;BME280;21214;44.912;8.204;2023-05-08T08:28:27;99890.59;;;20.58;100.00
35023;BME280;21214;44.912;8.204;2023-05-08T08:30:53;99886.44;;;20.49;100.00
35023;BME280;21214;44.912;8.204;2023-05-08T08:33:18;99884.63;;;20.63;100.00
35023;BME280;21214;44.912;8.204;2023-05-08T08:35:44;99884.44;;;20.64;100.00
35023;BME280;21214;44.912;8.204;2023-05-08T08:38:09;99883.59;;;20.57;100.00
35023;BME280;21214;44.912;8.204;2023-05-08T08:40:38;99885.66;;;20.55;100.00
35023;BME280;21214;44.912;8.204;2023-05-08T08:43:04;99892.00;;;20.48;100.00
35023;BME280;21214;44.912;8.204;2023-05-08T08:45:30;99891.56;;;20.44;100.00
35023;BME280;21214;44.912;8.204;2023-05-08T08:47:55;99895.47;;;20.41;100.00
35023;BME280;21214;44.912;8.204;2023-05-08T08:50:25;99895.91;;;20.45;100.00
35023;BME280;21214;44.912;8.204;2023-05-08T08:52:55;99884.56;;;20.43;100.00
35023;BME280;21214;44.912;8.204;2023-05-08T08:55:24;99885.13;;;20.38;100.00
35023;BME280;21214;44.912;8.204;2023-05-08T09:00:21;99886.09;;;20.65;100.00
35023;BME280;21214;44.912;8.204;2023-05-08T09:02:47;99881.59;;;20.72;100.00
35023;BME280;21214;44.912;8.204;2023-05-08T09:05:13;99876.72;;;20.96;100.00
35023;BME280;21214;44.912;8.204;2023-05-08T09:07:39;99874.69;;;21.11;100.00
35023;BME280;21214;44.912;8.204;2023-05-08T09:10:06;99880.50;;;21.14;100.00
35023;BME280;21214;44.912;8.204;2023-05-08T09:12:31;99879.28;;;21.17;100.00
35023;BME280;21214;44.912;8.204;2023-05-08T09:14:57;99875.78;;;21.23;100.00
35023;BME280;21214;44.912;8.204;2023-05-08T09:17:22;99873.53;;;21.33;100.00
35023;BME280;21214;44.912;8.204;2023-05-08T09:19:48;99884.25;;;21.33;100.00
35023;BME280;21214;44.912;8.204;2023-05-08T09:22:13;99878.09;;;21.26;100.00
35023;BME280;21214;44.912;8.204;2023-05-08T09:27:21;99885.91;;;21.34;100.00
35023;BME280;21214;44.912;8.204;2023-05-08T09:32:31;99888.00;;;21.58;100.00
35023;BME280;21214;44.912;8.204;2023-05-08T09:34:57;99893.38;;;21.58;100.00
35023;BME280;21214;44.912;8.204;2023-05-08T09:37:23;99892.16;;;21.61;100.00
35023;BME280;21214;44.912;8.204;2023-05-08T09:39:49;99893.38;;;21.58;100.00
35023;BME280;21214;44.912;8.204;2023-05-08T09:42:14;99890.09;;;21.43;100.00
35023;BME280;21214;44.912;8.204;2023-05-08T09:44:43;99890.28;;;21.48;100.00
35023;BME280;21214;44.912;8.204;2023-05-08T09:49:39;99893.56;;;21.50;100.00
35023;BME280;21214;44.912;8.204;2023-05-08T09:52:05;99898.53;;;21.47;100.00
35023;BME280;21214;44.912;8.204;2023-05-08T09:54:30;99901.66;;;21.44;100.00
35023;BME280;21214;44.912;8.204;2023-05-08T09:56:55;99901.22;;;21.40;100.00
35023;BME280;21214;44.912;8.204;2023-05-08T09:59:22;99907.59;;;21.39;100.00
35023;BME280;21214;44.912;8.204;2023-05-08T10:01:48;99911.97;;;21.47;100.00
35023;BME280;21214;44.912;8.204;2023-05-08T10:04:13;99911.16;;;21.59;100.00
35023;BME280;21214;44.912;8.204;2023-05-08T10:06:38;99910.34;;;21.72;100.00
35023;BME280;21214;44.912;8.204;2023-05-08T10:09:13;99907.88;;;21.84;100.00
35023;BME280;21214;44.912;8.204;2023-05-08T10:11:39;99915.34;;;21.95;100.00
35023;BME280;21214;44.912;8.204;2023-05-08T10:14:05;99903.13;;;22.05;100.00
35023;BME280;21214;44.912;8.204;2023-05-08T10:16:30;99904.53;;;22.21;100.00
35023;BME280;21214;44.912;8.204;2023-05-08T10:19:00;99906.63;;;22.32;100.00
35023;BME280;21214;44.912;8.204;2023-05-08T10:21:30;99902.84;;;22.33;100.00
35023;BME280;21214;44.912;8.204;2023-05-08T10:23:58;99905.81;;;22.12;100.00
35023;BME280;21214;44.912;8.204;2023-05-08T10:26:26;99903.75;;;22.14;100.00
35023;BME280;21214;44.912;8.204;2023-05-08T10:31:18;99897.13;;;22.03;100.00
35023;BME280;21214;44.912;8.204;2023-05-08T10:33:46;99900.44;;;22.12;100.00
35023;BME280;21214;44.912;8.204;2023-05-08T10:36:15;99902.47;;;22.23;100.00
35023;BME280;21214;44.912;8.204;2023-05-08T10:38:41;99899.97;;;22.28;100.00
35023;BME280;21214;44.912;8.204;2023-05-08T10:41:07;99897.28;;;22.35;100.00
35023;BME280;21214;44.912;8.204;2023-05-08T10:43:34;99893.75;;;22.34;100.00
35023;BME280;21214;44.912;8.204;2023-05-08T10:46:01;99905.75;;;22.38;100.00
35023;BME280;21214;44.912;8.204;2023-05-08T10:51:22;99890.84;;;22.42;100.00
35023;BME280;21214;44.912;8.204;2023-05-08T10:53:58;99895.81;;;22.45;100.00
35023;BME280;21214;44.912;8.204;2023-05-08T10:56:26;99892.06;;;22.46;100.00
35023;BME280;21214;44.912;8.204;2023-05-08T10:58:55;99893.72;;;22.48;100.00
35023;BME280;21214;44.912;8.204;2023-05-08T11:01:21;99882.13;;;22.54;100.00
35023;BME280;21214;44.912;8.204;2023-05-08T11:03:47;99875.09;;;22.53;100.00
35023;BME280;21214;44.912;8.204;2023-05-08T11:06:14;99882.09;;;22.67;100.00
35023;BME280;21214;44.912;8.204;2023-05-08T11:08:47;99873.56;;;22.70;100.00
35023;BME280;21214;44.912;8.204;2023-05-08T11:11:16;99875.69;;;22.68;100.00
35023;BME280;21214;44.912;8.204;2023-05-08T11:13:46;99876.72;;;22.67;100.00
35023;BME280;21214;44.912;8.204;2023-05-08T11:16:12;99870.09;;;22.63;100.00
35023;BME280;21214;44.912;8.204;2023-05-08T11:18:37;99865.16;;;22.60;100.00
35023;BME280;21214;44.912;8.204;2023-05-08T11:21:23;99871.75;;;22.64;100.00
35023;BME280;21214;44.912;8.204;2023-05-08T11:23:55;99871.75;;;22.64;100.00
35023;BME280;21214;44.912;8.204;2023-05-08T11:26:20;99871.91;;;22.69;100.00
35023;BME280;21214;44.912;8.204;2023-05-08T11:31:17;99858.44;;;22.82;100.00
35023;BME280;21214;44.912;8.204;2023-05-08T11:33:42;99867.50;;;22.94;100.00
35023;BME280;21214;44.912;8.204;2023-05-08T11:36:14;99865.75;;;23.13;99.63
35023;BME280;21214;44.912;8.204;2023-05-08T11:38:40;99861.09;;;23.26;95.79
35023;BME280;21214;44.912;8.204;2023-05-08T11:46:12;99853.19;;;23.32;94.07
35023;BME280;21214;44.912;8.204;2023-05-08T11:48:38;99857.72;;;23.38;93.93
35023;BME280;21214;44.912;8.204;2023-05-08T11:51:05;99853.22;;;23.56;93.80
35023;BME280;21214;44.912;8.204;2023-05-08T11:53:30;99855.88;;;23.63;93.45
35023;BME280;21214;44.912;8.204;2023-05-08T11:55:57;99854.25;;;23.62;91.97
35023;BME280;21214;44.912;8.204;2023-05-08T11:58:23;99859.13;;;23.47;90.37
35023;BME280;21214;44.912;8.204;2023-05-08T12:00:48;99860.25;;;23.33;91.20
35023;BME280;21214;44.912;8.204;2023-05-08T12:03:15;99845.28;;;23.37;92.01
35023;BME280;21214;44.912;8.204;2023-05-08T12:05:40;99845.28;;;23.37;92.74
35023;BME280;21214;44.912;8.204;2023-05-08T12:08:06;99841.16;;;23.34;91.91
35023;BME280;21214;44.912;8.204;2023-05-08T12:10:37;99845.66;;;23.47;90.66
35023;BME280;21214;44.912;8.204;2023-05-08T12:13:13;99843.69;;;23.60;89.29
35023;BME280;21214;44.912;8.204;2023-05-08T12:15:39;99830.78;;;23.87;88.53
35023;BME280;21214;44.912;8.204;2023-05-08T12:18:04;99827.75;;;24.02;86.72
35023;BME280;21214;44.912;8.204;2023-05-08T12:20:30;99829.13;;;23.86;86.00
35023;BME280;21214;44.912;8.204;2023-05-08T12:22:55;99830.31;;;23.72;87.72
35023;BME280;21214;44.912;8.204;2023-05-08T12:25:20;99823.88;;;23.73;88.43
35023;BME280;21214;44.912;8.204;2023-05-08T12:27:46;99834.81;;;23.78;87.11
35023;BME280;21214;44.912;8.204;2023-05-08T12:30:11;99833.19;;;23.95;85.47
35023;BME280;21214;44.912;8.204;2023-05-08T12:32:39;99828.28;;;24.29;85.14
35023;BME280;21214;44.912;8.204;2023-05-08T12:35:05;99821.09;;;24.41;81.42
35023;BME280;21214;44.912;8.204;2023-05-08T12:37:31;99815.91;;;24.58;81.63
35023;BME280;21214;44.912;8.204;2023-05-08T12:39:57;99814.47;;;24.73;81.51
35023;BME280;21214;44.912;8.204;2023-05-08T12:42:39;99815.25;;;24.92;81.43
35023;BME280;21214;44.912;8.204;2023-05-08T12:45:05;99820.59;;;25.10;77.44
35023;BME280;21214;44.912;8.204;2023-05-08T12:47:30;99822.06;;;25.24;75.62
35023;BME280;21214;44.912;8.204;2023-05-08T12:49:56;99823.53;;;25.50;74.52
35023;BME280;21214;44.912;8.204;2023-05-08T12:52:22;99819.44;;;25.83;74.75
35023;BME280;21214;44.912;8.204;2023-05-08T12:54:47;99816.75;;;25.94;74.27
35023;BME280;21214;44.912;8.204;2023-05-08T12:57:14;99816.41;;;25.67;73.54
35023;BME280;21214;44.912;8.204;2023-05-08T12:59:40;99809.75;;;25.40;75.54
35023;BME280;21214;44.912;8.204;2023-05-08T13:02:16;99813.00;;;25.19;77.24
35023;BME280;21214;44.912;8.204;2023-05-08T13:04:42;99803.13;;;25.13;75.82
35023;BME280;21214;44.912;8.204;2023-05-08T13:07:07;99807.03;;;25.40;74.38
35023;BME280;21214;44.912;8.204;2023-05-08T13:09:32;99800.88;;;25.75;70.81
35023;BME280;21214;44.912;8.204;2023-05-08T13:11:58;99799.56;;;26.00;68.42
35023;BME280;21214;44.912;8.204;2023-05-08T13:14:23;99801.53;;;26.28;68.25
35023;BME280;21214;44.912;8.204;2023-05-08T13:16:48;99793.91;;;26.25;68.54
35023;BME280;21214;44.912;8.204;2023-05-08T13:19:15;99795.47;;;25.75;70.17
35023;BME280;21214;44.912;8.204;2023-05-08T13:21:42;99795.34;;;25.69;71.72
35023;BME280;21214;44.912;8.204;2023-05-08T13:24:11;99794.03;;;26.07;71.52
35023;BME280;21214;44.912;8.204;2023-05-08T13:26:36;99800.66;;;26.51;70.31
35023;BME280;21214;44.912;8.204;2023-05-08T13:29:02;99801.00;;;26.55;68.25
35023;BME280;21214;44.912;8.204;2023-05-08T13:31:27;99802.66;;;26.84;66.77
35023;BME280;21214;44.912;8.204;2023-05-08T13:33:52;99793.94;;;27.10;65.81
35023;BME280;21214;44.912;8.204;2023-05-08T13:36:19;99797.44;;;26.94;65.55